createdAt,value
2023-04-23T00:01:05.686Z,11.70
2023-04-23T00:03:36.460Z,11.70
2023-04-23T00:06:07.942Z,11.68
2023-04-23T00:08:34.548Z,11.67
2023-04-23T00:11:01.804Z,11.66
2023-04-23T00:13:28.567Z,11.67
2023-04-23T00:15:55.572Z,11.65
2023-04-23T00:18:22.203Z,11.65
2023-04-23T00:20:48.820Z,11.62
2023-04-23T00:23:15.448Z,11.64
2023-04-23T00:25:41.999Z,11.65
2023-04-23T00:28:08.615Z,11.65
2023-04-23T00:30:35.379Z,11.67
2023-04-23T00:33:02.183Z,11.69
2023-04-23T00:35:28.870Z,11.68
2023-04-23T00:37:55.897Z,11.67
2023-04-23T00:40:23.661Z,11.64
2023-04-23T00:42:52.307Z,11.70
2023-04-23T00:45:18.928Z,11.68
2023-04-23T00:47:46.330Z,11.64
2023-04-23T00:50:13.273Z,11.63
2023-04-23T00:52:40.870Z,11.69
2023-04-23T00:55:08.524Z,11.68
2023-04-23T00:57:36.432Z,11.67
2023-04-23T01:00:03.714Z,11.64
2023-04-23T01:02:31.238Z,11.63
2023-04-23T01:04:58.806Z,11.63
2023-04-23T01:07:27.214Z,11.62
2023-04-23T01:09:53.929Z,11.62
2023-04-23T01:12:20.483Z,11.62
2023-04-23T01:14:47.099Z,11.63
2023-04-23T01:17:13.780Z,11.64
2023-04-23T01:19:40.541Z,11.65
2023-04-23T01:22:11.796Z,11.64
2023-04-23T01:24:39.396Z,11.65
2023-04-23T01:27:06.218Z,11.65
2023-04-23T01:29:33.193Z,11.63
2023-04-23T01:32:00.145Z,11.65
2023-04-23T01:34:26.730Z,11.66
2023-04-23T01:36:54.455Z,11.71
2023-04-23T01:39:21.015Z,11.67
2023-04-23T01:41:47.596Z,11.62
2023-04-23T01:44:14.259Z,11.59
2023-04-23T01:46:41.094Z,11.58
2023-04-23T01:49:08.228Z,11.57
2023-04-23T01:51:35.598Z,11.56
2023-04-23T01:54:02.142Z,11.53
2023-04-23T01:56:29.062Z,11.48
2023-04-23T01:58:55.956Z,11.45
2023-04-23T02:01:22.698Z,11.48
2023-04-23T02:03:50.082Z,11.48
2023-04-23T02:06:17.004Z,11.48
2023-04-23T02:08:43.646Z,11.47
2023-04-23T02:11:10.202Z,11.46
2023-04-23T02:13:36.776Z,11.47
2023-04-23T02:16:03.378Z,11.46
2023-04-23T02:18:30.041Z,11.44
2023-04-23T02:20:57.501Z,11.38
2023-04-23T02:23:24.053Z,11.37
2023-04-23T02:25:52.314Z,11.35
2023-04-23T02:28:18.968Z,11.37
2023-04-23T02:30:47.876Z,11.38
2023-04-23T02:33:14.680Z,11.42
2023-04-23T02:35:41.559Z,11.42
2023-04-23T02:38:08.200Z,11.46
2023-04-23T02:40:34.836Z,11.47
2023-04-23T02:43:01.411Z,11.50
2023-04-23T02:45:27.912Z,11.48
2023-04-23T02:47:54.591Z,11.46
2023-04-23T02:50:21.442Z,11.42
2023-04-23T02:52:48.944Z,11.44
2023-04-23T02:55:16.171Z,11.33
2023-04-23T02:57:43.315Z,11.18
2023-04-23T03:00:12.329Z,10.89
2023-04-23T03:02:38.992Z,10.61
2023-04-23T03:05:06.668Z,10.38
2023-04-23T03:07:33.254Z,10.43
2023-04-23T03:09:59.816Z,10.84
2023-04-23T03:12:26.381Z,11.34
2023-04-23T03:14:52.966Z,11.67
2023-04-23T03:17:19.497Z,11.85
2023-04-23T03:19:46.125Z,11.98
2023-04-23T03:22:12.734Z,12.14
2023-04-23T03:24:39.510Z,12.29
2023-04-23T03:27:06.171Z,12.35
2023-04-23T03:29:32.735Z,12.43
2023-04-23T03:31:59.406Z,12.52
2023-04-23T03:34:25.954Z,12.53
2023-04-23T03:36:52.582Z,12.60
2023-04-23T03:39:19.146Z,12.67
2023-04-23T03:41:46.089Z,12.74
2023-04-23T03:44:12.716Z,12.72
2023-04-23T03:46:39.456Z,12.70
2023-04-23T03:49:06.040Z,12.68
2023-04-23T03:51:32.658Z,12.67
2023-04-23T03:53:59.291Z,12.69
2023-04-23T03:56:27.126Z,12.74
2023-04-23T03:58:53.930Z,12.69
2023-04-23T04:01:20.542Z,12.61
2023-04-23T04:03:47.272Z,12.60
2023-04-23T04:06:14.104Z,12.62
2023-04-23T04:08:40.742Z,12.63
2023-04-23T04:11:08.399Z,12.70
2023-04-23T04:13:35.024Z,12.81
2023-04-23T04:16:01.761Z,12.89
2023-04-23T04:18:28.281Z,12.93
2023-04-23T04:20:55.193Z,12.97
2023-04-23T04:23:22.310Z,12.97
2023-04-23T04:25:51.010Z,12.99
2023-04-23T04:28:17.779Z,13.09
2023-04-23T04:30:44.816Z,13.20
2023-04-23T04:33:11.586Z,13.30
2023-04-23T04:35:38.166Z,13.43
2023-04-23T04:38:04.713Z,13.56
2023-04-23T04:40:31.600Z,13.65
2023-04-23T04:43:00.158Z,13.65
2023-04-23T04:45:26.721Z,13.72
2023-04-23T04:47:53.253Z,13.61
2023-04-23T04:50:19.813Z,13.65
2023-04-23T04:52:46.373Z,13.58
2023-04-23T04:55:13.002Z,13.58
2023-04-23T04:57:39.544Z,13.53
2023-04-23T05:00:38.662Z,13.50
2023-04-23T05:03:05.516Z,13.58
2023-04-23T05:05:32.590Z,13.60
2023-04-23T05:08:05.173Z,13.64
2023-04-23T05:10:31.755Z,13.61
2023-04-23T05:12:58.464Z,13.63
2023-04-23T05:15:25.057Z,13.74
2023-04-23T05:17:53.700Z,13.89
2023-04-23T05:20:20.982Z,14.03
2023-04-23T05:22:47.863Z,14.19
2023-04-23T05:25:14.482Z,14.33
2023-04-23T05:27:41.398Z,14.46
2023-04-23T05:30:09.596Z,14.45
2023-04-23T05:32:36.746Z,14.50
2023-04-23T05:35:03.974Z,14.52
2023-04-23T05:37:31.888Z,14.40
2023-04-23T05:39:58.565Z,14.35
2023-04-23T05:42:25.298Z,14.29
2023-04-23T05:44:52.075Z,14.11
2023-04-23T05:47:18.766Z,14.02
2023-04-23T05:49:45.310Z,14.01
2023-04-23T05:52:12.118Z,13.99
2023-04-23T05:54:39.362Z,14.10
2023-04-23T05:57:06.102Z,14.22
2023-04-23T05:59:32.727Z,14.37
2023-04-23T06:01:59.563Z,14.42
2023-04-23T06:04:27.186Z,14.37
2023-04-23T06:06:54.058Z,14.42
2023-04-23T06:09:20.630Z,14.44
2023-04-23T06:11:47.257Z,14.49
2023-04-23T06:14:13.805Z,14.53
2023-04-23T06:16:40.395Z,14.67
2023-04-23T06:19:06.919Z,14.88
2023-04-23T06:21:33.686Z,14.84
2023-04-23T06:24:00.336Z,14.98
2023-04-23T06:26:26.968Z,15.13
2023-04-23T06:28:53.747Z,15.17
2023-04-23T06:31:20.510Z,15.24
2023-04-23T06:33:47.078Z,15.31
2023-04-23T06:36:14.825Z,15.35
2023-04-23T06:38:41.382Z,15.36
2023-04-23T06:41:08.009Z,15.25
2023-04-23T06:43:34.829Z,15.26
2023-04-23T06:46:01.399Z,15.26
2023-04-23T06:48:27.968Z,15.35
2023-04-23T06:50:54.550Z,15.28
2023-04-23T06:53:22.191Z,15.32
2023-04-23T06:55:50.296Z,15.29
2023-04-23T06:58:17.473Z,15.43
2023-04-23T07:00:44.145Z,15.63
2023-04-23T07:03:10.897Z,15.76
2023-04-23T07:05:37.515Z,15.82
2023-04-23T07:08:04.042Z,15.92
2023-04-23T07:10:30.602Z,16.07
2023-04-23T07:12:57.173Z,16.22
2023-04-23T07:15:23.786Z,16.39
2023-04-23T07:17:50.509Z,16.49
2023-04-23T07:20:17.202Z,16.52
2023-04-23T07:22:43.836Z,16.56
2023-04-23T07:25:10.403Z,16.51
2023-04-23T07:27:37.349Z,16.53
2023-04-23T07:30:05.109Z,16.60
2023-04-23T07:32:31.833Z,16.69
2023-04-23T07:34:58.418Z,16.70
2023-04-23T07:37:24.996Z,16.72
2023-04-23T07:39:53.659Z,16.57
2023-04-23T07:42:20.478Z,16.55
2023-04-23T07:44:47.079Z,16.56
2023-04-23T07:47:14.051Z,16.54
2023-04-23T07:49:40.773Z,16.64
2023-04-23T07:52:08.320Z,16.72
2023-04-23T07:54:35.035Z,16.73
2023-04-23T07:57:01.554Z,16.71
2023-04-23T07:59:28.136Z,16.68
2023-04-23T08:01:55.245Z,16.68
2023-04-23T08:04:22.128Z,16.55
2023-04-23T08:06:48.881Z,16.52
2023-04-23T08:09:15.411Z,16.57
2023-04-23T08:11:42.042Z,16.51
2023-04-23T08:14:08.688Z,16.48
2023-04-23T08:16:38.074Z,16.33
2023-04-23T08:19:06.413Z,16.26
2023-04-23T08:21:33.767Z,16.20
2023-04-23T08:24:00.591Z,16.17
2023-04-23T08:26:27.184Z,16.22
2023-04-23T08:28:53.774Z,16.20
2023-04-23T08:31:26.528Z,16.14
2023-04-23T08:33:53.839Z,16.14
2023-04-23T08:36:20.591Z,16.22
2023-04-23T08:38:47.127Z,16.38
2023-04-23T08:41:14.634Z,16.47
2023-04-23T08:43:44.244Z,16.52
2023-04-23T08:46:13.747Z,16.54
2023-04-23T08:48:44.606Z,16.45
2023-04-23T08:51:13.424Z,16.45
2023-04-23T08:53:44.002Z,16.41
2023-04-23T08:56:11.440Z,16.50
2023-04-23T08:58:38.043Z,16.56
2023-04-23T09:01:04.742Z,16.49
2023-04-23T09:03:33.443Z,16.37
2023-04-23T09:06:00.766Z,16.25
2023-04-23T09:08:27.296Z,16.17
2023-04-23T09:10:55.735Z,16.16
2023-04-23T09:13:23.413Z,16.15
2023-04-23T09:15:50.043Z,16.21
2023-04-23T09:18:17.395Z,16.37
2023-04-23T09:20:44.571Z,16.47
2023-04-23T09:23:14.196Z,16.60
2023-04-23T09:25:40.841Z,16.60
2023-04-23T09:28:08.874Z,16.54
2023-04-23T09:30:39.102Z,16.54
2023-04-23T09:33:05.669Z,16.66
2023-04-23T09:35:32.845Z,16.73
2023-04-23T09:37:59.520Z,16.81
2023-04-23T09:40:27.174Z,16.90
2023-04-23T09:42:55.208Z,17.04
2023-04-23T09:45:22.125Z,17.26
2023-04-23T09:47:49.726Z,17.34
2023-04-23T09:50:16.365Z,17.26
2023-04-23T09:52:43.076Z,17.33
2023-04-23T09:55:09.772Z,17.43
2023-04-23T09:57:40.780Z,17.51
2023-04-23T10:00:15.293Z,17.52
2023-04-23T10:02:46.297Z,17.55
2023-04-23T10:05:24.517Z,17.74
2023-04-23T10:07:52.804Z,17.81
2023-04-23T10:10:19.968Z,17.78
2023-04-23T10:12:54.726Z,17.63
2023-04-23T10:15:23.313Z,17.58
2023-04-23T10:17:51.206Z,17.85
2023-04-23T10:20:20.084Z,18.15
2023-04-23T10:22:46.927Z,18.28
2023-04-23T10:25:13.535Z,18.76
2023-04-23T10:27:53.293Z,19.43
2023-04-23T10:30:21.308Z,20.13
2023-04-23T10:32:48.870Z,20.88
2023-04-23T10:35:15.531Z,21.48
2023-04-23T10:37:42.283Z,21.92
2023-04-23T10:40:12.480Z,21.86
2023-04-23T10:42:39.999Z,21.31
2023-04-23T10:45:24.139Z,20.67
2023-04-23T10:47:53.211Z,21.20
2023-04-23T10:50:29.761Z,22.20
2023-04-23T10:52:57.656Z,23.23
2023-04-23T10:55:25.918Z,23.78
2023-04-23T10:57:59.243Z,23.59
2023-04-23T11:00:27.924Z,23.49
2023-04-23T11:02:55.272Z,23.41
2023-04-23T11:05:23.566Z,23.37
2023-04-23T11:08:18.098Z,23.50
2023-04-23T11:10:56.279Z,23.72
2023-04-23T11:13:26.166Z,23.21
2023-04-23T11:16:11.659Z,23.54
2023-04-23T11:18:58.529Z,23.69
2023-04-23T11:21:43.858Z,23.96
2023-04-23T11:24:10.647Z,24.29
2023-04-23T11:26:37.913Z,24.72
2023-04-23T11:29:05.523Z,24.99
2023-04-23T11:31:32.949Z,25.03
2023-04-23T11:34:00.102Z,25.25
2023-04-23T11:36:27.632Z,25.51
2023-04-23T11:38:56.402Z,25.78
2023-04-23T11:41:23.413Z,26.01
2023-04-23T11:43:50.005Z,26.24
2023-04-23T11:46:16.648Z,26.37
2023-04-23T11:48:43.267Z,25.91
2023-04-23T11:51:09.830Z,25.83
2023-04-23T11:53:36.535Z,25.91
2023-04-23T11:56:04.188Z,25.94
2023-04-23T11:58:31.085Z,26.21
2023-04-23T12:00:59.392Z,26.22
2023-04-23T12:03:27.317Z,26.59
2023-04-23T12:05:55.947Z,26.36
2023-04-23T12:08:22.812Z,25.97
2023-04-23T12:10:59.304Z,26.12
2023-04-23T12:13:33.858Z,26.78
2023-04-23T12:16:01.693Z,27.05
2023-04-23T12:18:29.201Z,27.48
2023-04-23T12:20:55.955Z,27.85
2023-04-23T12:23:28.484Z,27.55
2023-04-23T12:25:55.249Z,27.52
2023-04-23T12:28:25.671Z,28.00
2023-04-23T12:30:52.369Z,28.27
2023-04-23T12:33:19.078Z,27.74
2023-04-23T12:35:50.320Z,27.43
2023-04-23T12:38:26.905Z,27.59
2023-04-23T12:40:54.226Z,27.53
2023-04-23T12:43:20.832Z,27.12
2023-04-23T12:45:47.472Z,25.60
2023-04-23T12:48:14.088Z,25.38
2023-04-23T12:50:41.125Z,25.93
2023-04-23T12:53:08.187Z,26.58
2023-04-23T12:55:34.719Z,27.31
2023-04-23T12:58:01.635Z,27.66
2023-04-23T13:00:28.345Z,27.84
2023-04-23T13:02:56.007Z,28.07
2023-04-23T13:05:23.596Z,28.12
2023-04-23T13:07:50.152Z,28.01
2023-04-23T13:10:16.750Z,27.65
2023-04-23T13:12:43.294Z,27.48
2023-04-23T13:15:12.084Z,27.81
2023-04-23T13:17:38.684Z,27.92
2023-04-23T13:20:05.686Z,28.09
2023-04-23T13:22:33.137Z,28.53
2023-04-23T13:25:00.029Z,29.26
2023-04-23T13:27:29.253Z,29.69
2023-04-23T13:29:56.191Z,28.61
2023-04-23T13:32:24.044Z,27.64
2023-04-23T13:34:50.686Z,27.07
2023-04-23T13:37:17.391Z,26.91
2023-04-23T13:39:44.620Z,27.09
2023-04-23T13:42:11.469Z,27.06
2023-04-23T13:44:38.021Z,26.61
2023-04-23T13:47:04.735Z,26.66
2023-04-23T13:49:31.329Z,26.74
2023-04-23T13:52:01.120Z,27.18
2023-04-23T13:54:27.972Z,27.63
2023-04-23T13:56:55.612Z,27.80
2023-04-23T13:59:22.174Z,27.45
2023-04-23T14:01:51.699Z,26.69
2023-04-23T14:04:18.900Z,26.48
2023-04-23T14:06:45.546Z,26.58
2023-04-23T14:09:12.149Z,26.33
2023-04-23T14:11:40.533Z,26.57
2023-04-23T14:14:07.686Z,25.81
2023-04-23T14:16:34.714Z,25.87
2023-04-23T14:19:01.367Z,25.98
2023-04-23T14:21:27.990Z,26.22
2023-04-23T14:24:17.091Z,26.47
2023-04-23T14:26:49.265Z,25.93
2023-04-23T14:29:34.870Z,25.92
2023-04-23T14:32:01.527Z,26.31
2023-04-23T14:34:28.222Z,26.35
2023-04-23T14:36:54.936Z,26.45
2023-04-23T14:39:26.375Z,26.44
2023-04-23T14:41:53.033Z,26.61
2023-04-23T14:44:19.640Z,26.62
2023-04-23T14:46:46.424Z,26.16
2023-04-23T14:49:12.964Z,25.82
2023-04-23T14:51:39.548Z,25.55
2023-04-23T14:54:06.321Z,25.59
2023-04-23T14:56:33.006Z,25.22
2023-04-23T14:58:59.706Z,24.99
2023-04-23T15:01:26.782Z,24.52
2023-04-23T15:03:53.546Z,24.31
2023-04-23T15:06:20.511Z,24.02
2023-04-23T15:08:47.084Z,23.92
2023-04-23T15:11:13.968Z,23.81
2023-04-23T15:13:45.661Z,23.56
2023-04-23T15:16:26.274Z,23.06
2023-04-23T15:19:03.419Z,22.87
2023-04-23T15:21:30.010Z,22.62
2023-04-23T15:23:56.688Z,22.58
2023-04-23T15:26:23.630Z,22.55
2023-04-23T15:28:51.722Z,22.28
2023-04-23T15:31:18.423Z,22.00
2023-04-23T15:33:45.042Z,21.86
2023-04-23T15:36:11.619Z,21.60
2023-04-23T15:38:38.206Z,21.21
2023-04-23T15:41:05.485Z,20.82
2023-04-23T15:43:32.056Z,20.29
2023-04-23T15:46:00.808Z,19.64
2023-04-23T15:48:27.880Z,19.20
2023-04-23T15:50:54.518Z,19.11
2023-04-23T15:53:22.881Z,18.91
2023-04-23T15:55:50.432Z,18.86
2023-04-23T15:58:17.599Z,18.81
2023-04-23T16:00:44.316Z,18.69
2023-04-23T16:03:11.195Z,18.48
2023-04-23T16:05:37.842Z,18.39
2023-04-23T16:08:04.558Z,18.26
2023-04-23T16:10:33.983Z,18.17
2023-04-23T16:13:01.799Z,18.09
2023-04-23T16:15:28.577Z,18.02
2023-04-23T16:17:56.448Z,17.95
2023-04-23T16:20:23.288Z,17.92
2023-04-23T16:22:49.912Z,17.90
2023-04-23T16:25:16.563Z,17.89
2023-04-23T16:27:43.180Z,17.87
2023-04-23T16:30:13.889Z,17.85
2023-04-23T16:32:40.577Z,17.79
2023-04-23T16:35:07.962Z,17.74
2023-04-23T16:37:34.595Z,17.61
2023-04-23T16:40:02.175Z,17.59
2023-04-23T16:42:29.953Z,17.52
2023-04-23T16:44:56.648Z,17.55
2023-04-23T16:47:23.263Z,17.46
2023-04-23T16:49:49.878Z,17.38
2023-04-23T16:52:16.515Z,17.31
2023-04-23T16:54:43.762Z,17.28
2023-04-23T16:57:11.542Z,17.20
2023-04-23T16:59:38.179Z,17.17
2023-04-23T17:02:04.932Z,17.11
2023-04-23T17:04:31.664Z,17.10
2023-04-23T17:06:58.389Z,17.06
2023-04-23T17:09:24.924Z,17.03
2023-04-23T17:11:51.553Z,17.05
2023-04-23T17:14:18.124Z,17.02
2023-04-23T17:16:44.820Z,16.96
2023-04-23T17:19:11.761Z,16.92
2023-04-23T17:21:38.469Z,16.88
2023-04-23T17:24:05.376Z,16.88
2023-04-23T17:26:31.976Z,16.86
2023-04-23T17:28:58.539Z,16.79
2023-04-23T17:31:25.261Z,16.79
2023-04-23T17:33:53.681Z,16.80
2023-04-23T17:36:20.483Z,16.80
2023-04-23T17:38:47.160Z,16.77
2023-04-23T17:41:13.785Z,16.74
2023-04-23T17:43:40.415Z,16.71
2023-04-23T17:46:07.073Z,16.72
2023-04-23T17:48:33.690Z,16.67
2023-04-23T17:51:00.653Z,16.61
2023-04-23T17:53:27.364Z,16.58
2023-04-23T17:55:58.588Z,16.57
2023-04-23T17:58:25.625Z,16.54
2023-04-23T18:00:53.027Z,16.50
2023-04-23T18:03:21.865Z,16.51
2023-04-23T18:05:48.755Z,16.52
2023-04-23T18:08:19.573Z,16.51
2023-04-23T18:10:46.492Z,16.54
2023-04-23T18:13:13.562Z,16.56
2023-04-23T18:15:42.098Z,16.55
2023-04-23T18:18:09.081Z,16.49
2023-04-23T18:20:38.839Z,16.41
2023-04-23T18:23:06.647Z,16.12
2023-04-23T18:25:33.758Z,15.79
2023-04-23T18:28:00.456Z,15.60
2023-04-23T18:30:27.040Z,15.38
2023-04-23T18:33:03.521Z,15.16
2023-04-23T18:35:30.241Z,14.93
2023-04-23T18:38:02.727Z,14.73
2023-04-23T18:40:32.382Z,14.55
2023-04-23T18:42:58.945Z,14.39
2023-04-23T18:45:25.687Z,14.24
2023-04-23T18:47:57.279Z,14.16
2023-04-23T18:50:30.088Z,14.09
2023-04-23T18:52:56.776Z,14.02
2023-04-23T18:55:23.656Z,13.97
2023-04-23T18:57:50.452Z,13.92
2023-04-23T19:00:17.210Z,13.89
2023-04-23T19:02:43.890Z,13.88
2023-04-23T19:05:11.334Z,13.86
2023-04-23T19:07:40.497Z,13.79
2023-04-23T19:10:07.531Z,13.71
2023-04-23T19:12:34.107Z,13.67
2023-04-23T19:15:00.848Z,13.65
2023-04-23T19:17:27.453Z,13.60
2023-04-23T19:19:54.014Z,13.54
2023-04-23T19:22:22.142Z,13.48
2023-04-23T19:24:48.764Z,13.45
2023-04-23T19:27:15.445Z,13.41
2023-04-23T19:29:42.306Z,13.33
2023-04-23T19:32:09.007Z,13.28
2023-04-23T19:34:35.755Z,13.22
2023-04-23T19:37:02.380Z,13.16
2023-04-23T19:39:29.156Z,13.15
2023-04-23T19:41:55.771Z,13.15
2023-04-23T19:44:22.384Z,13.13
2023-04-23T19:46:48.965Z,13.11
2023-04-23T19:49:15.659Z,13.15
2023-04-23T19:51:43.084Z,13.18
2023-04-23T19:54:09.735Z,13.17
2023-04-23T19:56:36.296Z,13.11
2023-04-23T19:59:02.931Z,13.04
2023-04-23T20:01:30.176Z,13.01
2023-04-23T20:03:57.084Z,13.02
2023-04-23T20:06:23.689Z,13.12
2023-04-23T20:09:06.781Z,13.28
2023-04-23T20:11:34.763Z,13.38
2023-04-23T20:14:01.843Z,13.45
2023-04-23T20:16:28.568Z,13.47
2023-04-23T20:18:58.430Z,13.48
2023-04-23T20:21:25.075Z,13.59
2023-04-23T20:23:51.763Z,13.73
2023-04-23T20:26:18.866Z,13.85
2023-04-23T20:28:47.364Z,13.91
2023-04-23T20:31:14.613Z,14.02
2023-04-23T20:33:41.463Z,14.13
2023-04-23T20:36:10.982Z,14.19
2023-04-23T20:38:38.112Z,14.25
2023-04-23T20:41:05.473Z,14.30
2023-04-23T20:43:33.490Z,14.35
2023-04-23T20:46:00.279Z,14.43
2023-04-23T20:48:29.474Z,14.48
2023-04-23T20:50:56.619Z,14.52
2023-04-23T20:53:23.530Z,14.55
2023-04-23T20:55:50.377Z,14.56
2023-04-23T20:58:17.437Z,14.58
2023-04-23T21:00:44.510Z,14.55
2023-04-23T21:03:11.726Z,14.39
2023-04-23T21:05:40.541Z,14.26
2023-04-23T21:08:08.013Z,14.20
2023-04-23T21:10:34.692Z,14.19
2023-04-23T21:13:01.578Z,14.24
2023-04-23T21:15:29.723Z,14.26
2023-04-23T21:17:56.943Z,14.25
2023-04-23T21:20:23.550Z,14.28
2023-04-23T21:22:50.416Z,14.22
2023-04-23T21:25:17.342Z,14.07
2023-04-23T21:27:46.028Z,13.90
2023-04-23T21:30:43.845Z,13.77
2023-04-23T21:33:10.593Z,13.60
2023-04-23T21:35:37.181Z,13.52
2023-04-23T21:38:03.845Z,13.50
2023-04-23T21:40:30.808Z,13.51
2023-04-23T21:42:57.385Z,13.52
2023-04-23T21:45:23.969Z,13.47
2023-04-23T21:47:51.087Z,13.35
2023-04-23T21:50:17.719Z,13.27
2023-04-23T21:52:44.599Z,13.15
2023-04-23T21:55:12.507Z,13.09
2023-04-23T21:57:39.250Z,13.00
2023-04-23T22:00:11.262Z,12.95
2023-04-23T22:02:37.987Z,12.92
2023-04-23T22:05:04.824Z,12.87
2023-04-23T22:07:32.322Z,12.81
2023-04-23T22:10:00.376Z,12.72
2023-04-23T22:12:27.042Z,12.64
2023-04-23T22:14:53.579Z,12.59
2023-04-23T22:17:20.221Z,12.63
2023-04-23T22:19:46.817Z,12.70
2023-04-23T22:22:13.623Z,12.77
2023-04-23T22:24:40.230Z,12.77
2023-04-23T22:27:06.889Z,12.78
2023-04-23T22:29:34.127Z,12.82
2023-04-23T22:32:01.548Z,12.79
2023-04-23T22:34:28.235Z,12.76
2023-04-23T22:36:54.750Z,12.73
2023-04-23T22:39:21.533Z,12.70
2023-04-23T22:41:48.099Z,12.64
2023-04-23T22:44:14.633Z,12.60
2023-04-23T22:46:41.379Z,12.55
2023-04-23T22:49:08.246Z,12.50
2023-04-23T22:51:35.563Z,12.46
2023-04-23T22:54:02.441Z,12.44
2023-04-23T22:56:29.419Z,12.41
2023-04-23T22:58:56.064Z,12.40
2023-04-23T23:01:22.730Z,12.38
2023-04-23T23:03:49.399Z,12.33
2023-04-23T23:06:17.732Z,12.36
2023-04-23T23:08:44.423Z,12.45
2023-04-23T23:11:11.065Z,12.50
2023-04-23T23:13:39.656Z,12.49
2023-04-23T23:16:06.831Z,12.46
2023-04-23T23:18:33.560Z,12.44
2023-04-23T23:21:00.121Z,12.47
2023-04-23T23:23:26.775Z,12.49
2023-04-23T23:25:53.337Z,12.51
2023-04-23T23:28:19.932Z,12.59
2023-04-23T23:30:47.974Z,12.64
2023-04-23T23:33:14.797Z,12.68
2023-04-23T23:35:43.588Z,12.75
2023-04-23T23:38:10.887Z,12.85
2023-04-23T23:40:37.631Z,12.89
2023-04-23T23:43:04.225Z,12.96
2023-04-23T23:45:30.976Z,13.07
2023-04-23T23:47:57.956Z,13.13
2023-04-23T23:50:24.539Z,13.18
2023-04-23T23:52:51.125Z,13.14
2023-04-23T23:55:17.710Z,13.11
2023-04-23T23:57:44.287Z,13.07
